Time;durP1;ratioP1;P1;durP2;ratioP2;P2;SDS_P1;SDS_P2;PMS_P1;PMS_P2;Temp;Humidity;BMP_temperature;BMP_pressure;BME280_temperature;BME280_humidity;BME280_pressure;Samples;Min_cycle;Max_cycle;Signal;HPM_P1;HPM_P2
2022/09/13 00:01:10;;;;;;;3.70;3.30;;;;;;;14.52;80.55;97851.59;6219586;23;20026;-84
2022/09/13 00:03:37;;;;;;;3.88;3.42;;;;;;;14.46;80.71;97850.66;6246574;23;20026;-86
2022/09/13 00:06:13;;;;;;;2.45;2.25;;;;;;;14.56;81.03;97853.53;6248058;23;20027;-85
2022/09/13 00:08:41;;;;;;;2.85;2.55;;;;;;;14.58;80.64;97846.22;6245418;23;20016;-85
2022/09/13 00:11:20;;;;;;;3.72;3.33;;;;;;;14.50;80.28;97833.34;6245682;23;20062;-86
2022/09/13 00:13:48;;;;;;;3.65;3.28;;;;;;;14.44;80.42;97836.88;6218319;23;20638;-85
2022/09/13 00:16:18;;;;;;;4.50;3.50;;;;;;;14.49;80.25;97842.31;6220444;23;20376;-85
2022/09/13 00:18:46;;;;;;;3.50;3.20;;;;;;;14.47;80.78;97836.47;6218525;23;20536;-84
2022/09/13 00:21:17;;;;;;;4.97;3.60;;;;;;;14.43;80.58;97833.44;6218125;23;20024;-83
2022/09/13 00:23:47;;;;;;;3.80;3.40;;;;;;;14.50;80.55;97833.34;6219573;23;20454;-84
2022/09/13 00:26:20;;;;;;;3.72;3.42;;;;;;;14.45;80.14;97827.94;6219046;23;20020;-87
2022/09/13 00:28:53;;;;;;;4.05;3.65;;;;;;;14.41;80.19;97832.06;6247641;23;20026;-84
2022/09/13 00:31:26;;;;;;;5.28;4.22;;;;;;;14.29;80.27;97826.81;6245345;23;20470;-84
2022/09/13 00:33:54;;;;;;;4.72;3.65;;;;;;;14.28;80.57;97816.50;6245404;23;20016;-84
2022/09/13 00:36:20;;;;;;;4.22;3.80;;;;;;;14.25;80.47;97811.66;6220261;23;20016;-86
2022/09/13 00:38:47;;;;;;;3.22;2.92;;;;;;;14.24;80.85;97802.16;6221598;23;20039;-85
2022/09/13 00:41:17;;;;;;;3.00;2.70;;;;;;;14.29;80.52;97810.19;6220724;23;20008;-87
2022/09/13 00:43:47;;;;;;;2.90;2.67;;;;;;;14.37;80.67;97810.63;6218893;23;20039;-85
2022/09/13 00:46:33;;;;;;;3.88;2.83;;;;;;;14.36;79.90;97816.94;6218958;23;20453;-85
2022/09/13 00:49:23;;;;;;;3.30;2.63;;;;;;;14.32;80.55;97814.97;6247407;23;20024;-84
2022/09/13 00:51:57;;;;;;;4.35;3.08;;;;;;;14.18;80.63;97809.13;6220729;23;20019;-85
2022/09/13 00:54:35;;;;;;;4.13;2.95;;;;;;;14.24;80.49;97817.97;6248125;23;20020;-83
2022/09/13 00:57:04;;;;;;;2.75;2.55;;;;;;;14.20;80.65;97823.69;6247655;23;20480;-84
2022/09/13 00:59:50;;;;;;;2.38;2.08;;;;;;;14.20;80.82;97810.50;6220147;23;20012;-83
2022/09/13 01:02:18;;;;;;;2.38;2.17;;;;;;;14.20;80.19;97813.13;6220364;23;20042;-85
2022/09/13 01:04:46;;;;;;;2.80;2.42;;;;;;;14.25;79.80;97819.56;6219776;23;20016;-86
2022/09/13 01:07:16;;;;;;;2.97;2.65;;;;;;;14.23;79.75;97813.72;6218872;23;20020;-86
2022/09/13 01:09:48;;;;;;;3.80;3.10;;;;;;;14.25;79.72;97822.22;6219108;23;20078;-84
2022/09/13 01:12:52;;;;;;;3.75;2.85;;;;;;;14.19;79.44;97808.91;6246070;23;20028;-85
2022/09/13 01:15:21;;;;;;;3.55;2.97;;;;;;;14.30;79.85;97822.31;6211423;23;20027;-83
2022/09/13 01:17:52;;;;;;;3.40;2.60;;;;;;;14.16;79.79;97800.66;6245586;23;20066;-86
2022/09/13 01:20:33;;;;;;;3.53;3.20;;;;;;;14.24;79.78;97807.41;6219276;23;20096;-83
2022/09/13 01:23:24;;;;;;;2.65;2.45;;;;;;;14.24;79.97;97796.88;6217758;23;20020;-85
2022/09/13 01:26:28;;;;;;;3.05;2.75;;;;;;;14.29;79.99;97802.25;6246075;22;20027;-88
2022/09/13 01:28:57;;;;;;;3.95;3.60;;;;;;;14.20;79.77;97797.31;6240943;23;20020;-85
2022/09/13 01:32:00;;;;;;;4.53;3.53;;;;;;;14.13;79.95;97785.28;6222558;23;20012;-84
2022/09/13 01:35:03;;;;;;;3.38;2.90;;;;;;;14.22;80.26;97798.94;6246580;23;20020;-84
2022/09/13 01:38:29;;;;;;;3.85;3.42;;;;;;;14.20;79.64;97801.78;6194123;23;20024;-84
2022/09/13 01:41:24;;;;;;;4.35;3.58;;;;;;;14.20;79.86;97799.94;6238007;23;20074;-84
2022/09/13 01:44:24;;;;;;;3.63;3.20;;;;;;;14.19;79.66;97803.63;6222686;23;20039;-85
2022/09/13 01:47:19;;;;;;;3.38;2.80;;;;;;;14.20;79.45;97792.03;6246469;23;20020;-83
2022/09/13 01:50:34;;;;;;;3.58;3.28;;;;;;;14.16;79.60;97798.81;6247568;23;20048;-86
2022/09/13 01:53:31;;;;;;;2.90;2.65;;;;;;;14.13;79.57;97801.91;6246865;23;20016;-85
2022/09/13 01:56:11;;;;;;;2.88;2.58;;;;;;;14.13;79.58;97786.09;6246738;23;20087;-91
2022/09/13 01:58:54;;;;;;;3.30;3.00;;;;;;;14.05;79.37;97799.63;6218990;23;20027;-90
2022/09/13 02:01:32;;;;;;;3.58;2.45;;;;;;;14.04;79.28;97794.59;6245345;23;20013;-89
2022/09/13 02:04:17;;;;;;;3.47;2.65;;;;;;;14.08;79.39;97796.50;6244841;23;20012;-92
2022/09/13 02:07:01;;;;;;;3.25;2.92;;;;;;;14.03;79.60;97799.03;6218337;23;20107;-91
2022/09/13 02:09:37;;;;;;;3.20;2.65;;;;;;;14.01;79.42;97801.09;6244350;23;20020;-90
2022/09/13 02:12:18;;;;;;;4.05;2.90;;;;;;;13.86;79.96;97779.66;6194488;23;20422;-91
2022/09/13 02:14:55;;;;;;;3.88;3.50;;;;;;;13.80;80.29;97778.75;6245152;23;20079;-89
2022/09/13 02:17:28;;;;;;;4.28;3.45;;;;;;;13.80;80.27;97775.31;6218048;23;20072;-92
2022/09/13 02:20:16;;;;;;;3.00;2.70;;;;;;;13.78;79.98;97769.44;6218746;23;20026;-88
2022/09/13 02:22:50;;;;;;;4.85;3.50;;;;;;;13.72;79.82;97772.97;6218476;23;20098;-88
2022/09/13 02:25:24;;;;;;;2.58;2.33;;;;;;;13.74;80.57;97779.66;6218960;23;20696;-86
2022/09/13 02:27:57;;;;;;;2.47;2.28;;;;;;;13.76;80.03;97769.69;6243184;23;20497;-88
2022/09/13 02:30:30;;;;;;;3.80;2.97;;;;;;;13.68;79.95;97758.69;6245660;23;20062;-85
2022/09/13 02:33:28;;;;;;;4.95;3.20;;;;;;;13.62;79.92;97761.19;6218955;23;20020;-86
2022/09/13 02:36:12;;;;;;;3.58;3.28;;;;;;;13.61;80.14;97751.69;6232102;23;20451;-88
2022/09/13 02:38:58;;;;;;;4.70;3.10;;;;;;;13.63;80.61;97751.44;6217259;23;20043;-84
2022/09/13 02:42:15;;;;;;;4.40;4.00;;;;;;;13.64;80.58;97755.69;6244392;23;20066;-85
2022/09/13 02:44:55;;;;;;;4.45;4.05;;;;;;;13.64;80.77;97750.41;6217568;23;20022;-90
2022/09/13 02:47:47;;;;;;;4.18;3.78;;;;;;;13.63;80.65;97741.72;6244423;23;20091;-87
2022/09/13 02:50:32;;;;;;;4.80;4.32;;;;;;;13.63;80.42;97744.34;6216978;23;20065;-86
2022/09/13 02:53:13;;;;;;;4.75;4.25;;;;;;;13.61;80.59;97738.50;6243881;23;20020;-88
2022/09/13 02:56:17;;;;;;;5.47;4.65;;;;;;;13.57;80.55;97745.25;6217923;23;20020;-85
2022/09/13 02:58:53;;;;;;;4.68;3.80;;;;;;;13.57;80.34;97732.06;6217550;23;20586;-86
2022/09/13 03:01:20;;;;;;;3.40;3.10;;;;;;;13.55;80.71;97726.22;6242115;23;20505;-88
2022/09/13 03:03:47;;;;;;;3.67;3.17;;;;;;;13.51;80.41;97725.09;6241970;23;20397;-91
2022/09/13 03:06:27;;;;;;;4.00;3.60;;;;;;;13.54;80.53;97736.97;6217356;23;20030;-90
2022/09/13 03:08:58;;;;;;;3.85;3.00;;;;;;;13.43;80.12;97720.13;6192493;23;20024;-91
2022/09/13 03:11:46;;;;;;;3.10;2.78;;;;;;;13.54;80.64;97740.41;6192501;23;20044;-87
2022/09/13 03:14:38;;;;;;;3.55;2.95;;;;;;;13.53;80.38;97743.28;6217708;23;20028;-84
2022/09/13 03:17:30;;;;;;;2.65;2.45;;;;;;;13.56;80.86;97741.00;6217754;23;20030;-92
2022/09/13 03:20:08;;;;;;;3.00;2.70;;;;;;;13.55;80.50;97735.94;6244018;23;20044;-86
2022/09/13 03:22:57;;;;;;;2.97;2.60;;;;;;;13.47;80.16;97734.47;6244257;23;20012;-88
2022/09/13 03:26:16;;;;;;;3.08;2.78;;;;;;;13.49;80.00;97740.28;6204826;22;20087;-89
2022/09/13 03:28:55;;;;;;;3.58;3.28;;;;;;;13.42;80.35;97742.22;6129131;23;20052;-89
2022/09/13 03:31:44;;;;;;;2.90;2.60;;;;;;;13.45;80.76;97730.47;6181734;23;20245;-85
2022/09/13 03:34:22;;;;;;;2.53;2.33;;;;;;;13.43;80.64;97725.41;6250598;22;20020;-84
2022/09/13 03:37:04;;;;;;;5.40;3.90;;;;;;;13.37;80.72;97739.47;6276365;22;20020;-84
2022/09/13 03:39:41;;;;;;;3.42;3.00;;;;;;;13.35;80.93;97725.72;6274666;22;20023;-86
2022/09/13 03:42:27;;;;;;;3.65;3.25;;;;;;;13.39;80.93;97737.44;6275562;22;20016;-84
2022/09/13 03:44:59;;;;;;;4.13;3.08;;;;;;;13.38;81.46;97744.53;6249175;22;20451;-84
2022/09/13 03:47:31;;;;;;;3.13;2.83;;;;;;;13.35;81.57;97741.53;6277155;22;20020;-85
2022/09/13 03:50:00;;;;;;;2.58;2.38;;;;;;;13.34;81.68;97729.41;6277827;22;20019;-83
2022/09/13 03:52:28;;;;;;;3.13;2.30;;;;;;;13.41;81.42;97735.38;6250399;22;20019;-84
2022/09/13 03:54:54;;;;;;;3.30;2.60;;;;;;;13.31;80.98;97717.50;6249339;22;20015;-83
2022/09/13 03:57:22;;;;;;;2.33;2.05;;;;;;;13.44;80.96;97726.22;6276872;22;20429;-86
2022/09/13 03:59:55;;;;;;;2.88;2.67;;;;;;;13.37;81.25;97705.22;6274437;22;20026;-84
2022/09/13 04:02:25;;;;;;;3.38;2.67;;;;;;;13.39;80.98;97713.72;6275411;22;20038;-87
2022/09/13 04:04:52;;;;;;;2.95;2.50;;;;;;;13.33;80.99;97706.72;6276204;22;20015;-84
2022/09/13 04:07:22;;;;;;;3.95;2.80;;;;;;;13.33;81.54;97718.06;6276168;22;20020;-84
2022/09/13 04:09:50;;;;;;;3.05;2.75;;;;;;;13.36;81.69;97732.59;6250127;22;20050;-85
2022/09/13 04:12:17;;;;;;;4.20;3.80;;;;;;;13.26;81.49;97719.19;6251438;22;20008;-84
2022/09/13 04:14:43;;;;;;;2.92;2.70;;;;;;;13.21;81.59;97714.59;6278145;22;20023;-86
2022/09/13 04:17:11;;;;;;;2.97;2.30;;;;;;;13.27;81.29;97718.16;6277702;22;20019;-85
2022/09/13 04:19:39;;;;;;;2.63;2.30;;;;;;;13.28;81.60;97714.50;6278446;22;20453;-84
2022/09/13 04:22:06;;;;;;;3.15;2.83;;;;;;;13.29;81.41;97726.63;6278433;22;20090;-83
2022/09/13 04:24:32;;;;;;;3.72;2.95;;;;;;;13.28;81.65;97727.66;6223936;22;20045;-84
2022/09/13 04:27:00;;;;;;;3.10;2.33;;;;;;;13.33;81.66;97730.44;6248718;23;20087;-86
2022/09/13 04:29:27;;;;;;;2.70;2.50;;;;;;;13.34;81.13;97718.88;6247482;23;20040;-85
2022/09/13 04:31:54;;;;;;;4.32;2.50;;;;;;;13.33;81.43;97728.59;6244188;23;20047;-83
2022/09/13 04:34:22;;;;;;;3.75;3.13;;;;;;;13.27;81.66;97733.97;6219732;23;20016;-84
2022/09/13 04:36:51;;;;;;;3.20;2.90;;;;;;;13.19;81.71;97745.56;6245765;23;20016;-86
2022/09/13 04:39:19;;;;;;;2.83;2.50;;;;;;;13.24;81.72;97760.75;6244878;23;20020;-84
2022/09/13 04:41:48;;;;;;;2.47;2.28;;;;;;;13.15;82.06;97746.28;6246028;23;20016;-83
2022/09/13 04:44:16;;;;;;;2.17;1.92;;;;;;;13.30;81.99;97750.09;6220558;23;20019;-84
2022/09/13 04:46:47;;;;;;;2.35;1.88;;;;;;;13.36;81.41;97758.94;6246901;23;20469;-84
2022/09/13 04:49:15;;;;;;;;;;;;;;;13.37;81.05;97760.53;6247444;23;20400;-84
2022/09/13 04:51:42;;;;;;;2.28;2.08;;;;;;;13.37;81.14;97757.91;6246134;23;20010;-84
2022/09/13 04:54:11;;;;;;;2.45;2.13;;;;;;;13.38;81.31;97752.44;6246401;23;20020;-84
2022/09/13 04:56:46;;;;;;;2.33;2.13;;;;;;;13.33;81.34;97752.31;6245822;23;20012;-83
2022/09/13 04:59:13;;;;;;;2.35;2.15;;;;;;;13.26;80.98;97735.81;6247048;23;20027;-85
2022/09/13 05:01:40;;;;;;;2.17;1.98;;;;;;;13.24;81.34;97737.03;6246272;23;20095;-83
2022/09/13 05:04:08;;;;;;;3.15;2.60;;;;;;;13.31;80.94;97756.16;6217733;23;20020;-87
2022/09/13 05:06:37;;;;;;;3.05;2.47;;;;;;;13.23;81.35;97744.13;6218918;23;20020;-87
2022/09/13 05:09:04;;;;;;;3.10;2.78;;;;;;;13.26;81.39;97735.00;6218304;23;20087;-86
2022/09/13 05:11:31;;;;;;;4.05;3.47;;;;;;;13.21;80.87;97729.59;6218403;23;20019;-84
2022/09/13 05:14:00;;;;;;;5.95;3.90;;;;;;;13.20;81.44;97738.50;6245674;23;20012;-84
2022/09/13 05:16:30;;;;;;;3.40;3.10;;;;;;;13.17;81.49;97741.56;6246994;23;20095;-84
2022/09/13 05:18:58;;;;;;;3.28;2.92;;;;;;;13.21;81.57;97740.13;6218767;23;20056;-84
2022/09/13 05:21:26;;;;;;;3.72;3.08;;;;;;;13.21;81.23;97750.66;6246430;23;20043;-84
2022/09/13 05:23:55;;;;;;;3.28;2.97;;;;;;;13.23;81.50;97756.50;6245995;23;20103;-83
2022/09/13 05:26:25;;;;;;;3.10;2.40;;;;;;;13.24;81.07;97739.66;6244112;22;20099;-84
2022/09/13 05:28:52;;;;;;;2.30;2.10;;;;;;;13.32;80.70;97744.63;6244469;23;20066;-85
2022/09/13 05:31:25;;;;;;;2.38;2.15;;;;;;;13.35;80.70;97731.00;6245905;23;20016;-84
2022/09/13 05:33:57;;;;;;;3.10;2.80;;;;;;;13.42;80.34;97746.69;6246369;23;20020;-82
2022/09/13 05:36:25;;;;;;;3.05;2.75;;;;;;;13.44;80.47;97744.66;6245048;23;20027;-83
2022/09/13 05:38:53;;;;;;;2.55;2.28;;;;;;;13.53;80.92;97728.28;6244845;23;20346;-84
2022/09/13 05:41:40;;;;;;;2.67;2.47;;;;;;;13.65;79.75;97713.28;6244679;23;20019;-84
2022/09/13 05:44:07;;;;;;;4.72;3.85;;;;;;;13.53;79.71;97707.19;6245966;23;20021;-84
2022/09/13 05:46:40;;;;;;;4.82;3.95;;;;;;;13.51;80.04;97719.81;6246257;23;20012;-84
2022/09/13 05:49:07;;;;;;;4.22;3.60;;;;;;;13.59;80.36;97719.47;6218781;23;20354;-85
2022/09/13 05:51:33;;;;;;;4.13;3.72;;;;;;;13.61;80.21;97735.03;6244737;23;20020;-83
2022/09/13 05:54:00;;;;;;;3.22;2.92;;;;;;;13.79;80.72;97731.50;6244932;23;20047;-84
2022/09/13 05:56:29;;;;;;;3.67;3.17;;;;;;;13.85;79.82;97727.94;6243775;23;20406;-84
2022/09/13 05:58:55;;;;;;;4.25;3.35;;;;;;;13.96;79.55;97731.63;6244354;23;20022;-83
2022/09/13 06:01:28;;;;;;;4.30;2.83;;;;;;;14.05;79.69;97735.53;6242859;23;20040;-83
2022/09/13 06:03:58;;;;;;;4.35;3.88;;;;;;;14.09;78.66;97747.22;6238449;23;20632;-83
2022/09/13 06:06:25;;;;;;;3.22;2.92;;;;;;;14.26;79.41;97752.59;6243467;23;20051;-83
2022/09/13 06:08:54;;;;;;;3.47;2.85;;;;;;;14.31;79.34;97739.50;6239872;23;20020;-83
2022/09/13 06:11:23;;;;;;;2.83;2.53;;;;;;;14.45;79.26;97746.97;6244551;23;20016;-84
2022/09/13 06:13:50;;;;;;;4.05;2.97;;;;;;;14.53;78.56;97742.38;6242452;23;20329;-84
2022/09/13 06:16:17;;;;;;;3.80;3.50;;;;;;;14.55;77.42;97750.84;6245031;23;20022;-83
2022/09/13 06:18:44;;;;;;;4.70;3.70;;;;;;;14.55;77.71;97756.94;6244940;23;20209;-83
2022/09/13 06:21:18;;;;;;;3.97;3.10;;;;;;;14.63;77.99;97759.22;6244615;23;20020;-83
2022/09/13 06:23:53;;;;;;;3.38;3.05;;;;;;;14.77;77.88;97764.22;6191935;23;20071;-83
2022/09/13 06:26:27;;;;;;;4.13;3.53;;;;;;;14.70;77.25;97754.59;6245775;22;20095;-83
2022/09/13 06:28:56;;;;;;;3.53;3.17;;;;;;;14.84;77.26;97756.97;6246340;23;20015;-84
2022/09/13 06:31:44;;;;;;;3.83;3.15;;;;;;;14.96;77.24;97757.72;6245713;23;20078;-83
2022/09/13 06:34:14;;;;;;;2.83;2.53;;;;;;;15.07;76.74;97754.25;6219133;23;20074;-84
2022/09/13 06:36:59;;;;;;;7.55;4.97;;;;;;;15.02;76.51;97750.72;6246457;23;20054;-84
2022/09/13 06:39:44;;;;;;;4.82;4.32;;;;;;;15.12;76.19;97743.78;6245770;23;20119;-84
2022/09/13 06:42:34;;;;;;;4.10;3.60;;;;;;;15.12;76.09;97735.84;6245762;23;20035;-83
2022/09/13 06:45:14;;;;;;;4.00;3.60;;;;;;;15.22;76.11;97738.66;6245702;23;20023;-84
2022/09/13 06:47:43;;;;;;;4.00;3.60;;;;;;;15.23;75.53;97737.63;6246110;23;20016;-83
2022/09/13 06:50:10;;;;;;;3.28;2.92;;;;;;;15.41;75.80;97743.72;6218852;23;20054;-83
2022/09/13 06:52:37;;;;;;;4.43;4.03;;;;;;;15.43;75.05;97750.38;6246630;23;20012;-85
2022/09/13 06:55:04;;;;;;;7.35;4.97;;;;;;;15.31;75.37;97733.00;6246752;23;20027;-84
2022/09/13 06:57:37;;;;;;;5.38;4.72;;;;;;;15.43;74.69;97739.03;6245414;23;20095;-85
2022/09/13 07:00:05;;;;;;;5.80;5.00;;;;;;;15.46;74.99;97749.09;6219926;23;20044;-84
2022/09/13 07:02:31;;;;;;;5.15;4.43;;;;;;;15.54;74.77;97748.72;6218920;23;20020;-84
2022/09/13 07:04:58;;;;;;;4.80;4.30;;;;;;;15.58;75.01;97743.75;6245999;23;20020;-84
2022/09/13 07:07:25;;;;;;;3.55;3.25;;;;;;;15.74;74.74;97743.78;6217812;23;20346;-86
2022/09/13 07:09:52;;;;;;;4.50;4.10;;;;;;;15.89;73.98;97747.69;6218214;23;20095;-84
2022/09/13 07:12:18;;;;;;;4.72;4.32;;;;;;;15.97;72.71;97740.16;6244384;23;20012;-85
2022/09/13 07:14:46;;;;;;;4.28;3.70;;;;;;;16.20;73.24;97760.31;6245562;23;20549;-85
2022/09/13 07:17:13;;;;;;;4.55;4.15;;;;;;;16.35;72.87;97749.13;6245175;23;20099;-85
2022/09/13 07:19:40;;;;;;;4.55;4.15;;;;;;;16.50;72.18;97748.53;6244394;23;20059;-85
2022/09/13 07:22:06;;;;;;;5.10;4.60;;;;;;;16.64;72.05;97751.63;6244327;23;20082;-84
2022/09/13 07:24:33;;;;;;;4.28;3.88;;;;;;;16.72;72.21;97741.41;6241634;22;20461;-84
2022/09/13 07:27:00;;;;;;;4.30;3.90;;;;;;;16.89;71.07;97749.28;6242977;23;20099;-84
2022/09/13 07:29:26;;;;;;;4.35;3.95;;;;;;;16.89;71.00;97751.94;6242142;23;20461;-84
2022/09/13 07:31:55;;;;;;;4.70;3.85;;;;;;;16.95;71.72;97758.09;6243358;23;20012;-84
2022/09/13 07:34:24;;;;;;;5.47;4.70;;;;;;;16.97;69.20;97753.31;6240056;23;20042;-83
2022/09/13 07:36:52;;;;;;;3.85;3.50;;;;;;;17.10;70.22;97745.00;6216613;23;20599;-84
2022/09/13 07:39:19;;;;;;;5.70;3.90;;;;;;;17.33;69.55;97763.25;6193390;23;20100;-84
2022/09/13 07:41:49;;;;;;;5.00;4.50;;;;;;;17.43;69.12;97754.59;6244483;23;20012;-84
2022/09/13 07:44:16;;;;;;;3.95;3.55;;;;;;;17.54;68.75;97750.19;6243929;23;20525;-83
2022/09/13 07:46:43;;;;;;;3.75;3.45;;;;;;;17.62;69.17;97752.34;6245643;23;20086;-85
2022/09/13 07:49:15;;;;;;;3.85;3.35;;;;;;;17.75;69.86;97751.16;6246768;23;20027;-90
2022/09/13 07:51:43;;;;;;;5.90;4.32;;;;;;;17.84;68.70;97744.34;6221023;23;20042;-87
2022/09/13 07:54:16;;;;;;;7.25;5.53;;;;;;;17.79;69.27;97746.94;6194856;23;20043;-85
2022/09/13 07:56:44;;;;;;;5.10;4.60;;;;;;;17.81;68.10;97756.28;6248953;23;20020;-85
2022/09/13 07:59:14;;;;;;;4.60;4.18;;;;;;;17.86;69.26;97753.63;6247648;23;20023;-87
2022/09/13 08:01:44;;;;;;;6.85;4.60;;;;;;;17.71;68.81;97764.13;6247414;23;20016;-85
2022/09/13 08:04:16;;;;;;;5.00;3.88;;;;;;;17.81;68.45;97761.56;6218713;23;20070;-85
2022/09/13 08:06:45;;;;;;;6.05;4.40;;;;;;;17.80;68.56;97765.25;6245330;23;20441;-86
2022/09/13 08:09:12;;;;;;;3.88;3.58;;;;;;;17.93;69.19;97753.41;6218945;23;20024;-86
2022/09/13 08:11:45;;;;;;;4.05;3.30;;;;;;;18.01;67.05;97754.81;6246078;23;20016;-86
2022/09/13 08:14:20;;;;;;;4.00;3.60;;;;;;;18.14;67.48;97765.78;6246215;23;20016;-86
2022/09/13 08:16:47;;;;;;;5.93;5.32;;;;;;;18.19;66.35;97763.16;6221189;23;20345;-85
2022/09/13 08:19:17;;;;;;;4.88;4.38;;;;;;;18.40;65.38;97771.22;6243237;23;20103;-85
2022/09/13 08:21:47;;;;;;;5.73;5.10;;;;;;;18.33;64.53;97757.38;6219081;23;20349;-87
2022/09/13 08:24:20;;;;;;;5.38;4.55;;;;;;;18.52;66.23;97752.41;6245486;23;20017;-86
2022/09/13 08:26:48;;;;;;;4.93;3.90;;;;;;;18.74;66.93;97763.72;6244054;22;20042;-86
2022/09/13 08:29:15;;;;;;;4.18;3.72;;;;;;;19.03;64.63;97776.56;6246129;23;20597;-87
2022/09/13 08:31:43;;;;;;;4.38;3.97;;;;;;;19.09;62.86;97764.88;6246190;23;20040;-86
2022/09/13 08:34:13;;;;;;;3.78;3.20;;;;;;;19.39;64.50;97775.56;6191203;23;20030;-85
2022/09/13 08:36:59;;;;;;;3.70;3.30;;;;;;;19.56;64.02;97780.66;6245980;23;20046;-86
2022/09/13 08:39:34;;;;;;;3.80;3.42;;;;;;;19.57;63.00;97773.47;6218761;23;20020;-85
2022/09/13 08:42:18;;;;;;;3.63;3.15;;;;;;;19.80;62.11;97770.31;6218020;23;20012;-87
2022/09/13 08:44:53;;;;;;;3.70;3.40;;;;;;;20.04;63.13;97786.53;6245789;23;20860;-86
2022/09/13 08:47:30;;;;;;;5.10;4.60;;;;;;;19.87;62.38;97770.84;6244758;23;20410;-88
2022/09/13 08:50:17;;;;;;;4.80;4.40;;;;;;;19.70;62.53;97773.75;6243090;23;20511;-85
2022/09/13 08:53:17;;;;;;;3.63;3.33;;;;;;;19.82;63.08;97762.06;6244990;23;20012;-86
2022/09/13 08:55:56;;;;;;;;;;;;;;;19.96;63.41;97769.22;6208025;23;20103;-86
2022/09/13 08:58:45;;;;;;;4.07;3.40;;;;;;;19.87;62.00;97764.72;6217074;23;19915;-87
2022/09/13 09:01:26;;;;;;;3.90;3.50;;;;;;;19.82;62.72;97773.50;6244211;23;20417;-85
2022/09/13 09:04:32;;;;;;;3.40;3.10;;;;;;;19.95;62.13;97769.50;6244239;23;20446;-86
2022/09/13 09:07:11;;;;;;;3.80;3.38;;;;;;;19.99;64.09;97758.06;6243788;23;20099;-86
2022/09/13 09:09:59;;;;;;;4.53;3.58;;;;;;;20.08;62.48;97763.63;6245143;23;20437;-86
2022/09/13 09:12:48;;;;;;;3.63;3.10;;;;;;;20.18;61.61;97768.13;6243874;23;20020;-86
2022/09/13 09:15:33;;;;;;;6.10;3.88;;;;;;;20.02;61.13;97757.50;6243608;23;20020;-86
2022/09/13 09:18:13;;;;;;;5.97;3.80;;;;;;;19.95;61.21;97759.63;6218662;23;20058;-85
2022/09/13 09:20:48;;;;;;;4.70;4.28;;;;;;;20.05;60.75;97767.63;6245181;23;20070;-85
2022/09/13 09:23:21;;;;;;;3.90;3.50;;;;;;;20.30;60.80;97764.09;6217971;23;20398;-85
2022/09/13 09:26:10;;;;;;;3.75;3.45;;;;;;;20.47;61.55;97763.84;6248208;22;20414;-86
2022/09/13 09:28:36;;;;;;;4.50;3.60;;;;;;;20.47;58.67;97763.84;6243066;23;20020;-85
2022/09/13 09:31:12;;;;;;;6.47;4.50;;;;;;;20.34;60.27;97768.91;6243884;23;20017;-86
2022/09/13 09:34:12;;;;;;;3.67;3.38;;;;;;;20.45;60.01;97773.13;6218574;23;20013;-86
2022/09/13 09:37:05;;;;;;;;;;;;;;;20.53;61.59;97764.63;6218250;23;20043;-85
2022/09/13 09:39:37;;;;;;;3.25;2.90;;;;;;;20.50;60.10;97752.63;6218210;23;19915;-86
2022/09/13 09:42:17;;;;;;;4.85;4.32;;;;;;;20.35;60.64;97760.66;6218161;23;20115;-84
2022/09/13 09:45:30;;;;;;;4.45;4.05;;;;;;;20.44;58.50;97779.50;6218815;23;20054;-83
2022/09/13 09:48:06;;;;;;;4.18;3.83;;;;;;;20.26;59.25;97754.25;6236580;23;20051;-85
2022/09/13 09:50:42;;;;;;;4.50;4.10;;;;;;;20.19;61.36;97754.53;6218727;23;20662;-85
2022/09/13 09:53:23;;;;;;;4.03;3.65;;;;;;;20.17;60.65;97758.56;6247327;23;20110;-85
2022/09/13 09:56:01;;;;;;;3.28;2.97;;;;;;;20.30;61.61;97753.47;6218040;23;20046;-86
2022/09/13 09:58:54;;;;;;;3.47;3.17;;;;;;;20.36;60.72;97730.28;6217459;23;20020;-85
2022/09/13 10:01:33;;;;;;;4.13;3.72;;;;;;;20.24;59.76;97733.25;6240428;23;20438;-85
2022/09/13 10:04:09;;;;;;;3.83;3.38;;;;;;;20.22;61.56;97735.38;6245002;23;20066;-86
2022/09/13 10:06:39;;;;;;;4.03;3.63;;;;;;;20.17;61.29;97713.28;6217428;23;20062;-86
2022/09/13 10:09:20;;;;;;;4.63;4.22;;;;;;;20.21;61.09;97723.16;6244879;23;20078;-86
2022/09/13 10:11:59;;;;;;;5.05;4.38;;;;;;;20.02;60.72;97717.56;6243827;23;20050;-84
2022/09/13 10:14:33;;;;;;;4.05;3.65;;;;;;;20.10;61.99;97688.81;6244529;23;20468;-84
2022/09/13 10:17:26;;;;;;;4.57;4.07;;;;;;;20.26;61.34;97677.03;6217612;23;20442;-86
2022/09/13 10:20:00;;;;;;;3.63;3.20;;;;;;;20.46;58.74;97681.53;6244218;23;20019;-85
2022/09/13 10:22:30;;;;;;;4.43;4.03;;;;;;;20.46;58.38;97674.34;6243907;23;20012;-86
2022/09/13 10:25:25;;;;;;;4.15;3.75;;;;;;;20.66;58.74;97696.63;6219256;23;20020;-86
2022/09/13 10:27:59;;;;;;;3.13;2.80;;;;;;;20.96;57.79;97663.66;6215851;23;20046;-86
2022/09/13 10:30:35;;;;;;;2.80;2.55;;;;;;;21.24;56.96;97670.94;6244559;23;20464;-86
2022/09/13 10:33:04;;;;;;;3.78;3.47;;;;;;;21.15;55.97;97693.13;6217454;23;20023;-85
2022/09/13 10:35:32;;;;;;;4.47;3.80;;;;;;;21.28;56.07;97687.16;6214596;23;20112;-86
2022/09/13 10:38:00;;;;;;;4.25;3.30;;;;;;;21.38;56.03;97692.44;6216301;23;20385;-85
2022/09/13 10:40:33;;;;;;;4.63;4.15;;;;;;;21.33;56.68;97703.94;6245624;23;20438;-84
2022/09/13 10:43:06;;;;;;;5.10;4.70;;;;;;;21.18;56.17;97703.25;6242343;23;20094;-85
2022/09/13 10:45:33;;;;;;;3.83;3.33;;;;;;;21.27;57.24;97713.03;6243559;23;20071;-85
2022/09/13 10:48:18;;;;;;;4.60;4.20;;;;;;;21.29;56.87;97702.09;6216798;23;20016;-84
2022/09/13 10:51:27;;;;;;;4.95;4.15;;;;;;;21.38;56.91;97703.91;6243851;23;20456;-87
2022/09/13 10:54:22;;;;;;;3.75;3.45;;;;;;;21.51;55.35;97699.81;6216935;23;20012;-83
2022/09/13 10:56:50;;;;;;;4.53;4.07;;;;;;;21.65;54.45;97697.28;6243741;23;20019;-83
2022/09/13 10:59:30;;;;;;;4.90;4.38;;;;;;;21.66;54.22;97698.91;6216353;23;20084;-85
2022/09/13 11:02:35;;;;;;;;;;;;;;;21.80;54.56;97696.34;6244251;23;20016;-85
2022/09/13 11:05:17;;;;;;;4.05;3.40;;;;;;;21.91;54.99;97697.84;6216179;23;20506;-85
2022/09/13 11:08:38;;;;;;;4.40;3.65;;;;;;;22.22;54.86;97700.22;6218873;23;20020;-85
2022/09/13 11:11:18;;;;;;;3.50;3.20;;;;;;;22.31;54.40;97685.97;6228104;23;20434;-88
2022/09/13 11:14:10;;;;;;;4.45;3.88;;;;;;;22.39;57.31;97692.56;6216883;23;20050;-88
2022/09/13 11:16:59;;;;;;;2.95;2.50;;;;;;;22.50;55.64;97691.34;6244094;23;20016;-87
2022/09/13 11:20:03;;;;;;;5.82;3.80;;;;;;;22.54;53.03;97680.88;6243944;23;20350;-85
2022/09/13 11:22:51;;;;;;;4.70;2.95;;;;;;;22.69;54.42;97676.13;6219246;23;20024;-87
2022/09/13 11:25:29;;;;;;;3.75;2.90;;;;;;;22.90;54.09;97676.66;6244877;22;20028;-86
2022/09/13 11:28:15;;;;;;;3.10;2.80;;;;;;;22.96;53.60;97675.50;6244188;23;20017;-88
2022/09/13 11:31:17;;;;;;;3.88;2.90;;;;;;;23.03;53.01;97669.81;6245797;23;20051;-87
2022/09/13 11:34:57;;;;;;;2.92;2.53;;;;;;;22.94;54.01;97671.53;6216181;23;20039;-86
2022/09/13 11:37:44;;;;;;;3.70;3.35;;;;;;;22.65;52.65;97672.44;6244747;23;20078;-84
2022/09/13 11:40:31;;;;;;;4.40;3.72;;;;;;;22.54;54.42;97675.53;6218394;23;20020;-87
2022/09/13 11:43:21;;;;;;;4.30;3.60;;;;;;;22.37;55.19;97681.34;6217641;23;20027;-85
2022/09/13 11:46:14;;;;;;;4.53;3.85;;;;;;;22.08;55.12;97678.72;6243689;23;20438;-84
2022/09/13 11:49:25;;;;;;;5.15;4.18;;;;;;;21.67;55.87;97689.81;6216113;23;20030;-84
2022/09/13 11:52:16;;;;;;;3.88;3.42;;;;;;;21.49;56.64;97683.28;6218744;23;20031;-84
2022/09/13 11:54:51;;;;;;;5.45;3.83;;;;;;;21.36;56.44;97689.28;6218266;23;20497;-83
2022/09/13 11:57:31;;;;;;;3.40;3.10;;;;;;;21.22;58.04;97688.28;6243076;23;20044;-85
2022/09/13 12:00:17;;;;;;;;;;;;;;;21.23;57.68;97696.03;6245737;23;20023;-85
2022/09/13 12:03:09;;;;;;;3.28;3.08;;;;;;;21.09;58.30;97705.69;6244056;23;20317;-84
2022/09/13 12:05:50;;;;;;;3.35;3.03;;;;;;;21.09;58.50;97721.69;6243285;23;20013;-87
2022/09/13 12:08:25;;;;;;;4.20;3.80;;;;;;;21.02;59.40;97710.53;6243518;23;20016;-85
2022/09/13 12:11:24;;;;;;;3.88;3.50;;;;;;;20.89;60.72;97698.63;6245395;23;20239;-88
2022/09/13 12:14:06;;;;;;;3.42;2.80;;;;;;;20.94;60.75;97701.28;6215362;23;20038;-86
2022/09/13 12:16:51;;;;;;;4.25;3.10;;;;;;;20.85;60.79;97694.91;6246213;23;20020;-83
2022/09/13 12:19:27;;;;;;;4.57;2.95;;;;;;;20.86;60.81;97691.16;6244129;23;20020;-88
2022/09/13 12:21:59;;;;;;;3.47;3.08;;;;;;;20.90;60.70;97686.88;6217619;23;20020;-86